ENSD/SDN METAR and TAF weather

Enter ICAO airport designator
Station Type Date Time Source
ENSD METAR 2020/07/06 08:20 UTC NOAA

ENSD 060820Z 29017G27KT 250V330 9999 -SHRA FEW022 SCT027 BKN034 12/07 Q0992 RMK WIND 1138FT 35015G25KT


Station Type Date Time Source
ENSD Decoded METAR 2020/07/06 08:20 UTC NOAA

Sandane / Anda, Norway (ENSD) 61-50N 006-07E 60M
Jul 06, 2020 - 04:20 AM EDT / 2020.07.06 0820 UTC
Wind: from the WNW (290 degrees) at 20 MPH (17 KT) gusting to 31 MPH (27 KT) (direction variable):0
Visibility: greater than 7 mile(s):0
Sky conditions: mostly cloudy
Weather: light rain showers
Temperature: 53 F (12 C)
Dew Point: 44 F (7 C)
Relative Humidity: 71%
Pressure (altimeter): 29.29 in. Hg (0992 hPa)
ob: ENSD 060820Z 29017G27KT 250V330 9999 -SHRA FEW022 SCT027 BKN034 12/07 Q0992 RMK WIND 1138FT 35015G25KT
cycle: 8

Station Type Date Time Source
ENSD TAF UTC NOAA

Error!

Example: see airport list